createdAt,value
2018-02-01T00:01:26.060Z,72.70
2018-02-01T00:03:56.346Z,73.22
2018-02-01T00:06:26.660Z,73.22
2018-02-01T00:08:56.995Z,73.33
2018-02-01T00:11:27.538Z,73.67
2018-02-01T00:13:57.729Z,73.78
2018-02-01T00:16:28.113Z,73.70
2018-02-01T00:18:58.443Z,73.98
2018-02-01T00:21:28.707Z,74.61
2018-02-01T00:23:58.838Z,74.58
2018-02-01T00:26:30.744Z,75.46
2018-02-01T00:29:00.942Z,75.10
2018-02-01T00:31:31.802Z,75.50
2018-02-01T00:34:02.146Z,75.62
2018-02-01T00:36:32.612Z,75.42
2018-02-01T00:39:09.568Z,75.09
2018-02-01T00:41:39.911Z,74.70
2018-02-01T00:44:10.145Z,75.06
2018-02-01T00:46:40.560Z,74.98
2018-02-01T00:49:10.746Z,74.49
2018-02-01T00:51:41.004Z,74.10
2018-02-01T00:54:11.256Z,74.04
2018-02-01T00:56:41.582Z,73.94
2018-02-01T00:59:13.160Z,73.86
2018-02-01T01:01:43.270Z,74.20
2018-02-01T01:04:13.735Z,73.98
2018-02-01T01:06:44.044Z,73.73
2018-02-01T01:09:14.320Z,73.78
2018-02-01T01:11:44.809Z,74.12
2018-02-01T01:14:15.409Z,74.01
2018-02-01T01:16:45.958Z,73.79
2018-02-01T01:19:16.522Z,73.39
2018-02-01T01:21:46.885Z,73.50
2018-02-01T01:24:18.838Z,73.95
2018-02-01T01:26:49.027Z,73.76
2018-02-01T01:29:19.405Z,73.66
2018-02-01T01:31:49.503Z,74.05
2018-02-01T01:34:20.404Z,73.82
2018-02-01T01:36:50.697Z,74.14
2018-02-01T01:39:21.199Z,74.25
2018-02-01T01:41:52.294Z,74.34
2018-02-01T01:44:22.640Z,74.30
2018-02-01T01:46:53.241Z,74.69
2018-02-01T01:49:23.798Z,74.21
2018-02-01T01:51:54.080Z,74.26
2018-02-01T01:54:24.571Z,74.47
2018-02-01T01:56:54.835Z,74.65
2018-02-01T01:59:25.297Z,74.70
2018-02-01T02:01:55.112Z,74.69
2018-02-01T02:04:24.959Z,74.70
2018-02-01T02:06:55.501Z,74.78
2018-02-01T02:09:25.579Z,74.27
2018-02-01T02:11:55.536Z,74.35
2018-02-01T02:14:25.449Z,74.59
2018-02-01T02:16:56.124Z,74.55
2018-02-01T02:19:25.956Z,74.42
2018-02-01T02:21:55.880Z,74.44
2018-02-01T02:24:25.831Z,74.28
2018-02-01T02:26:56.553Z,74.23
2018-02-01T02:29:27.222Z,74.22
2018-02-01T02:31:57.052Z,73.88
2018-02-01T02:34:27.203Z,73.84
2018-02-01T02:36:57.213Z,73.32
2018-02-01T02:39:27.074Z,73.44
2018-02-01T02:41:56.968Z,73.77
2018-02-01T02:44:26.949Z,73.77
2018-02-01T02:46:56.894Z,73.02
2018-02-01T02:49:26.883Z,73.23
2018-02-01T02:51:56.708Z,73.12
2018-02-01T02:54:26.637Z,72.92
2018-02-01T02:56:57.204Z,72.80
2018-02-01T02:59:27.337Z,72.48
2018-02-01T03:01:57.253Z,72.37
2018-02-01T03:04:27.275Z,72.37
2018-02-01T03:06:57.095Z,72.39
2018-02-01T03:09:27.004Z,71.69
2018-02-01T03:11:56.864Z,72.20
2018-02-01T03:14:27.763Z,72.20
2018-02-01T03:16:57.551Z,71.99
2018-02-01T03:19:27.431Z,72.07
2018-02-01T03:21:58.017Z,71.91
2018-02-01T03:24:27.919Z,71.87
2018-02-01T03:26:57.933Z,72.17
2018-02-01T03:29:27.851Z,72.29
2018-02-01T03:31:57.802Z,72.63
2018-02-01T03:34:27.740Z,72.60
2018-02-01T03:36:58.558Z,72.93
2018-02-01T03:39:28.766Z,73.00
2018-02-01T03:41:58.750Z,72.72
2018-02-01T03:44:28.671Z,72.94
2018-02-01T03:46:58.678Z,72.84
2018-02-01T03:49:28.555Z,73.03
2018-02-01T03:51:58.486Z,73.20
2018-02-01T03:54:29.639Z,73.46
2018-02-01T03:57:00.276Z,72.77
2018-02-01T03:59:30.336Z,73.31
2018-02-01T04:02:00.112Z,73.89
2018-02-01T04:04:30.242Z,73.69
2018-02-01T04:07:00.031Z,74.16
2018-02-01T04:09:30.769Z,73.93
2018-02-01T04:12:00.636Z,74.05
2018-02-01T04:14:30.596Z,74.23
2018-02-01T04:17:00.451Z,74.09
2018-02-01T04:19:30.417Z,73.93
2018-02-01T04:22:01.095Z,74.03
2018-02-01T04:24:30.873Z,73.85
2018-02-01T04:27:00.896Z,74.00
2018-02-01T04:29:30.905Z,74.18
2018-02-01T04:32:01.172Z,74.11
2018-02-01T04:34:30.953Z,74.48
2018-02-01T04:37:01.035Z,74.53
2018-02-01T04:39:30.889Z,74.62
2018-02-01T04:42:00.788Z,74.50
2018-02-01T04:44:31.911Z,74.37
2018-02-01T04:47:02.503Z,74.57
2018-02-01T04:49:32.316Z,74.38
2018-02-01T04:52:02.751Z,74.59
2018-02-01T04:54:32.741Z,75.02
2018-02-01T04:57:02.577Z,75.04
2018-02-01T04:59:32.911Z,74.83
2018-02-01T05:02:02.818Z,74.85
2018-02-01T05:04:32.638Z,74.75
2018-02-01T05:07:02.671Z,75.29
2018-02-01T05:09:33.600Z,75.41
2018-02-01T05:12:03.508Z,75.23
2018-02-01T05:14:33.625Z,75.03
2018-02-01T05:17:03.776Z,75.03
2018-02-01T05:19:33.594Z,75.24
2018-02-01T05:22:04.111Z,75.02
2018-02-01T05:24:34.255Z,74.95
2018-02-01T05:27:05.077Z,74.72
2018-02-01T05:29:34.949Z,74.59
2018-02-01T05:32:04.903Z,74.80
2018-02-01T05:34:34.747Z,74.91
2018-02-01T05:37:04.737Z,75.08
2018-02-01T05:39:34.558Z,74.85
2018-02-01T05:42:05.273Z,74.85
2018-02-01T05:44:35.318Z,74.96
2018-02-01T05:47:05.103Z,75.23
2018-02-01T05:49:34.952Z,75.40
2018-02-01T05:52:04.981Z,75.51
2018-02-01T05:54:34.922Z,75.55
2018-02-01T05:57:05.647Z,75.27
2018-02-01T05:59:36.296Z,75.21
2018-02-01T06:02:06.198Z,75.43
2018-02-01T06:04:36.886Z,75.78
2018-02-01T06:07:06.854Z,75.79
2018-02-01T06:09:36.774Z,75.51
2018-02-01T06:12:06.671Z,75.48
2018-02-01T06:14:37.554Z,75.50
2018-02-01T06:17:07.469Z,75.96
2018-02-01T06:19:37.417Z,75.63
2018-02-01T06:22:08.069Z,75.57
2018-02-01T06:24:38.627Z,75.41
2018-02-01T06:27:08.500Z,75.67
2018-02-01T06:29:38.374Z,75.93
2018-02-01T06:32:08.201Z,75.89
2018-02-01T06:34:38.407Z,75.83
2018-02-01T06:37:08.321Z,75.94
2018-02-01T06:39:38.180Z,75.94
2018-02-01T06:42:08.955Z,75.87
2018-02-01T06:44:38.863Z,75.59
2018-02-01T06:47:09.621Z,75.70
2018-02-01T06:49:39.539Z,75.61
2018-02-01T06:52:09.446Z,75.52
2018-02-01T06:54:39.361Z,75.44
2018-02-01T06:57:09.930Z,75.24
2018-02-01T06:59:40.099Z,74.88
2018-02-01T07:02:10.207Z,74.83
2018-02-01T07:04:40.048Z,74.91
2018-02-01T07:07:10.157Z,75.27
2018-02-01T07:09:40.090Z,75.13
2018-02-01T07:12:09.961Z,75.30
2018-02-01T07:14:40.538Z,75.41
2018-02-01T07:17:10.434Z,75.33
2018-02-01T07:19:40.569Z,75.22
2018-02-01T07:22:10.472Z,75.14
2018-02-01T07:24:40.290Z,75.21
2018-02-01T07:27:10.130Z,75.05
2018-02-01T07:29:40.215Z,75.15
2018-02-01T07:32:10.347Z,75.08
2018-02-01T07:34:40.109Z,75.17
2018-02-01T07:37:10.687Z,75.57
2018-02-01T07:39:40.511Z,74.80
2018-02-01T07:42:10.425Z,74.95
2018-02-01T07:44:40.240Z,75.18
2018-02-01T07:47:10.268Z,75.00
2018-02-01T07:49:40.225Z,74.94
2018-02-01T07:52:10.928Z,75.06
2018-02-01T07:54:40.917Z,75.08
2018-02-01T07:57:11.344Z,74.43
2018-02-01T07:59:41.688Z,74.85
2018-02-01T08:02:12.156Z,75.09
2018-02-01T08:04:44.186Z,74.70
2018-02-01T08:07:15.535Z,74.42
2018-02-01T08:09:46.236Z,74.31
2018-02-01T08:12:16.576Z,74.28
2018-02-01T08:14:47.132Z,74.52
2018-02-01T08:17:17.655Z,73.23
2018-02-01T08:19:48.053Z,73.19
2018-02-01T08:22:18.586Z,72.77
2018-02-01T08:24:49.184Z,72.61
2018-02-01T08:27:19.550Z,72.96
2018-02-01T08:29:50.141Z,72.94
2018-02-01T08:32:20.819Z,72.87
2018-02-01T08:34:51.009Z,72.62
2018-02-01T08:37:21.386Z,72.38
2018-02-01T08:39:52.038Z,72.24
2018-02-01T08:42:23.145Z,71.94
2018-02-01T08:44:53.983Z,71.78
2018-02-01T08:47:24.497Z,72.18
2018-02-01T08:49:54.926Z,72.53
2018-02-01T08:52:25.695Z,72.57
2018-02-01T08:54:56.212Z,72.19
2018-02-01T08:57:26.686Z,72.03
2018-02-01T08:59:57.146Z,71.54
2018-02-01T09:02:27.664Z,71.50
2018-02-01T09:04:59.087Z,71.91
2018-02-01T09:07:30.340Z,71.78
2018-02-01T09:10:00.776Z,72.06
2018-02-01T09:12:31.200Z,72.27
2018-02-01T09:15:01.757Z,71.97
2018-02-01T09:17:32.311Z,71.97
2018-02-01T09:20:02.781Z,72.45
2018-02-01T09:22:33.346Z,72.04
2018-02-01T09:25:03.680Z,72.43
2018-02-01T09:27:34.142Z,72.41
2018-02-01T09:30:04.661Z,72.89
2018-02-01T09:32:35.026Z,73.90
2018-02-01T09:35:06.277Z,72.74
2018-02-01T09:37:37.188Z,72.80
2018-02-01T09:40:07.505Z,75.73
2018-02-01T09:42:38.882Z,69.69
2018-02-01T09:45:10.021Z,70.47
2018-02-01T09:47:41.086Z,70.48
2018-02-01T09:50:11.424Z,70.78
2018-02-01T09:52:42.034Z,71.38
2018-02-01T09:55:12.421Z,71.21
2018-02-01T09:57:42.767Z,70.97
2018-02-01T10:00:13.859Z,70.63
2018-02-01T10:02:44.413Z,70.84
2018-02-01T10:05:14.777Z,70.69
2018-02-01T10:07:46.070Z,70.52
2018-02-01T10:10:16.437Z,70.39
2018-02-01T10:12:47.468Z,70.78
2018-02-01T10:15:18.656Z,70.68
2018-02-01T10:17:49.186Z,70.89
2018-02-01T10:20:19.531Z,70.34
2018-02-01T10:22:49.696Z,70.79
2018-02-01T10:25:20.745Z,70.40
2018-02-01T10:27:52.180Z,70.61
2018-02-01T10:30:22.327Z,70.30
2018-02-01T10:32:53.388Z,70.15
2018-02-01T10:35:23.857Z,70.40
2018-02-01T10:37:54.068Z,70.33
2018-02-01T10:40:24.648Z,70.23
2018-02-01T10:42:55.801Z,70.52
2018-02-01T10:45:26.184Z,70.12
2018-02-01T10:47:56.445Z,75.75
2018-02-01T10:50:27.372Z,68.54
2018-02-01T10:52:57.679Z,69.23
2018-02-01T10:55:27.513Z,68.76
2018-02-01T10:57:57.372Z,69.06
2018-02-01T11:00:27.255Z,69.06
2018-02-01T11:02:57.990Z,69.55
2018-02-01T11:05:28.856Z,68.79
2018-02-01T11:07:58.678Z,68.94
2018-02-01T11:10:28.657Z,69.07
2018-02-01T11:12:59.291Z,69.04
2018-02-01T11:15:30.058Z,69.31
2018-02-01T11:18:00.000Z,69.20
2018-02-01T11:20:30.769Z,69.47
2018-02-01T11:23:01.501Z,69.46
2018-02-01T11:25:31.437Z,68.75
2018-02-01T11:28:01.292Z,66.36
2018-02-01T11:30:31.364Z,66.58
2018-02-01T11:33:01.960Z,66.64
2018-02-01T11:35:31.771Z,67.11
2018-02-01T11:38:02.013Z,67.78
2018-02-01T11:40:32.044Z,68.27
2018-02-01T11:43:02.907Z,68.75
2018-02-01T11:45:32.813Z,69.05
2018-02-01T11:48:02.722Z,70.06
2018-02-01T11:50:34.285Z,70.05
2018-02-01T11:53:04.090Z,70.41
2018-02-01T11:55:34.128Z,71.02
2018-02-01T11:58:04.035Z,71.20
2018-02-01T12:00:33.921Z,71.38
2018-02-01T12:03:04.646Z,71.57
2018-02-01T12:05:34.544Z,70.89
2018-02-01T12:08:04.499Z,70.91
2018-02-01T12:10:35.354Z,70.82
2018-02-01T12:13:05.229Z,71.54
2018-02-01T12:15:35.958Z,70.73
2018-02-01T12:18:05.907Z,71.10
2018-02-01T12:20:36.540Z,71.01
2018-02-01T12:23:07.357Z,69.81
2018-02-01T12:25:37.316Z,70.33
2018-02-01T12:28:07.175Z,70.34
2018-02-01T12:30:37.704Z,69.81
2018-02-01T12:33:08.764Z,69.73
2018-02-01T12:35:39.375Z,69.46
2018-02-01T12:38:09.194Z,69.71
2018-02-01T12:40:40.663Z,69.18
2018-02-01T12:43:11.331Z,68.68
2018-02-01T12:45:41.176Z,68.75
2018-02-01T12:48:11.204Z,68.85
2018-02-01T12:50:41.136Z,69.10
2018-02-01T12:53:11.814Z,69.20
2018-02-01T12:55:41.961Z,70.35
2018-02-01T12:58:11.948Z,70.81
2018-02-01T13:00:43.894Z,70.24
2018-02-01T13:03:13.788Z,70.45
2018-02-01T13:05:44.532Z,69.11
2018-02-01T13:08:14.491Z,69.25
2018-02-01T13:10:44.317Z,69.74
2018-02-01T13:13:14.233Z,69.94
2018-02-01T13:15:44.379Z,70.03
2018-02-01T13:18:14.727Z,69.93
2018-02-01T13:20:44.736Z,69.97
2018-02-01T13:23:14.615Z,70.23
2018-02-01T13:25:44.688Z,70.75
2018-02-01T13:28:15.086Z,70.86
2018-02-01T13:30:45.115Z,71.24
2018-02-01T13:33:16.087Z,71.24
2018-02-01T13:35:45.918Z,71.80
2018-02-01T13:38:16.139Z,72.33
2018-02-01T13:40:46.619Z,73.54
2018-02-01T13:43:16.803Z,74.43
2018-02-01T13:45:46.898Z,75.82
2018-02-01T13:48:16.836Z,75.57
2018-02-01T13:50:46.851Z,76.10
2018-02-01T13:53:17.224Z,76.00
2018-02-01T13:55:48.183Z,76.20
2018-02-01T13:58:18.076Z,77.23
2018-02-01T14:00:48.989Z,77.19
2018-02-01T14:03:19.063Z,77.58
2018-02-01T14:05:49.363Z,77.33
2018-02-01T14:08:19.471Z,78.13
2018-02-01T14:10:49.477Z,77.60
2018-02-01T14:13:23.631Z,77.80
2018-02-01T14:15:54.357Z,78.17
2018-02-01T14:18:25.206Z,78.06
2018-02-01T14:20:56.072Z,77.93
2018-02-01T14:23:25.920Z,77.53
2018-02-01T14:25:55.824Z,78.79
2018-02-01T14:28:25.880Z,78.90
2018-02-01T14:30:56.664Z,79.65
2018-02-01T14:33:26.609Z,79.74
2018-02-01T14:35:56.640Z,80.13
2018-02-01T14:38:26.565Z,79.66
2018-02-01T14:40:56.458Z,79.84
2018-02-01T14:43:26.407Z,80.06
2018-02-01T14:45:57.113Z,79.82
2018-02-01T14:48:27.198Z,79.95
2018-02-01T14:50:57.329Z,80.21
2018-02-01T14:53:27.482Z,80.22
2018-02-01T14:55:57.341Z,80.30
2018-02-01T14:58:27.291Z,80.18
2018-02-01T15:00:57.177Z,80.38
2018-02-01T15:03:27.123Z,79.94
2018-02-01T15:05:57.103Z,80.12
2018-02-01T15:08:26.992Z,79.81
2018-02-01T15:10:57.730Z,79.52
2018-02-01T15:13:28.411Z,79.71
2018-02-01T15:15:58.482Z,79.55
2018-02-01T15:18:29.176Z,79.43
2018-02-01T15:20:59.205Z,79.51
2018-02-01T15:23:29.272Z,78.89
2018-02-01T15:25:59.245Z,79.52
2018-02-01T15:28:29.243Z,79.91
2018-02-01T15:30:59.409Z,79.75
2018-02-01T15:33:29.327Z,79.21
2018-02-01T15:35:59.221Z,79.45
2018-02-01T15:38:29.103Z,77.94
2018-02-01T15:40:59.404Z,78.38
2018-02-01T15:43:29.585Z,78.94
2018-02-01T15:45:59.673Z,79.16
2018-02-01T15:48:30.191Z,79.35
2018-02-01T15:51:00.239Z,79.17
2018-02-01T15:53:30.188Z,79.21
2018-02-01T15:56:01.165Z,79.45
2018-02-01T15:58:31.400Z,79.46
2018-02-01T16:01:01.319Z,79.64
2018-02-01T16:03:31.246Z,79.48
2018-02-01T16:06:01.079Z,79.41
2018-02-01T16:08:31.795Z,78.79
2018-02-01T16:11:01.696Z,79.41
2018-02-01T16:13:31.765Z,79.65
2018-02-01T16:16:01.832Z,79.01
2018-02-01T16:18:32.161Z,79.04
2018-02-01T16:21:02.206Z,78.77
2018-02-01T16:23:32.379Z,78.84
2018-02-01T16:26:02.271Z,78.89
2018-02-01T16:28:32.349Z,78.68
2018-02-01T16:31:02.275Z,78.36
2018-02-01T16:33:32.118Z,78.75
2018-02-01T16:36:02.124Z,78.58
2018-02-01T16:38:32.043Z,78.34
2018-02-01T16:41:02.768Z,78.36
2018-02-01T16:43:33.487Z,78.18
2018-02-01T16:46:03.540Z,78.28
2018-02-01T16:48:33.414Z,77.45
2018-02-01T16:51:03.319Z,77.54
2018-02-01T16:53:33.337Z,77.59
2018-02-01T16:56:03.301Z,77.60
2018-02-01T16:58:33.262Z,77.73
2018-02-01T17:01:03.228Z,78.14
2018-02-01T17:03:33.205Z,77.84
2018-02-01T17:06:03.262Z,77.90
2018-02-01T17:08:33.330Z,77.75
2018-02-01T17:11:03.314Z,77.98
2018-02-01T17:13:34.313Z,78.09
2018-02-01T17:16:04.246Z,78.26
2018-02-01T17:18:34.486Z,78.15
2018-02-01T17:21:04.570Z,77.81
2018-02-01T17:23:34.790Z,77.73
2018-02-01T17:26:04.974Z,77.37
2018-02-01T17:28:35.782Z,77.47
2018-02-01T17:31:06.034Z,77.34
2018-02-01T17:33:36.738Z,77.63
2018-02-01T17:36:06.584Z,77.89
2018-02-01T17:38:36.551Z,77.99
2018-02-01T17:41:06.432Z,77.79
2018-02-01T17:43:36.994Z,77.64
2018-02-01T17:46:06.864Z,77.48
2018-02-01T17:48:36.923Z,77.50
2018-02-01T17:51:07.164Z,77.64
2018-02-01T17:53:37.406Z,77.66
2018-02-01T17:56:08.150Z,77.83
2018-02-01T17:58:39.012Z,78.16
2018-02-01T18:01:09.142Z,77.19
2018-02-01T18:03:39.257Z,77.10
2018-02-01T18:06:09.596Z,77.27
2018-02-01T18:08:39.701Z,77.32
2018-02-01T18:11:09.721Z,77.34
2018-02-01T18:13:39.897Z,76.59
2018-02-01T18:16:10.510Z,76.42
2018-02-01T18:18:40.708Z,76.46
2018-02-01T18:21:10.707Z,75.74
2018-02-01T18:23:40.703Z,75.49
2018-02-01T18:26:11.345Z,75.59
2018-02-01T18:28:41.930Z,75.73
2018-02-01T18:31:12.059Z,75.55
2018-02-01T18:33:42.206Z,75.15
2018-02-01T18:36:12.105Z,75.36
2018-02-01T18:38:41.974Z,75.65
2018-02-01T18:41:11.910Z,75.85
2018-02-01T18:43:41.904Z,75.97
2018-02-01T18:46:11.792Z,76.02
2018-02-01T18:48:41.677Z,75.53
2018-02-01T18:51:11.680Z,75.78
2018-02-01T18:53:41.628Z,82.63
2018-02-01T18:56:11.594Z,74.74
2018-02-01T18:58:42.269Z,74.69
2018-02-01T19:01:12.947Z,75.41
2018-02-01T19:03:43.028Z,75.34
2018-02-01T19:06:14.305Z,75.33
2018-02-01T19:08:44.219Z,75.60
2018-02-01T19:11:14.068Z,75.77
2018-02-01T19:13:44.314Z,76.01
2018-02-01T19:16:14.991Z,76.05
2018-02-01T19:18:45.062Z,76.04
2018-02-01T19:21:15.360Z,75.88
2018-02-01T19:23:46.237Z,75.33
2018-02-01T19:26:16.358Z,75.33
2018-02-01T19:28:46.357Z,75.37
2018-02-01T19:31:16.334Z,75.48
2018-02-01T19:33:46.348Z,75.18
2018-02-01T19:36:16.325Z,74.98
2018-02-01T19:38:46.569Z,75.04
2018-02-01T19:41:16.704Z,74.82
2018-02-01T19:43:47.067Z,74.71
2018-02-01T19:46:17.829Z,74.57
2018-02-01T19:48:47.934Z,74.89
2018-02-01T19:51:18.005Z,74.83
2018-02-01T19:53:48.147Z,74.49
2018-02-01T19:56:18.844Z,74.80
2018-02-01T19:58:48.652Z,74.37
2018-02-01T20:01:18.775Z,74.18
2018-02-01T20:03:48.855Z,74.20
2018-02-01T20:06:18.888Z,74.04
2018-02-01T20:08:48.762Z,73.79
2018-02-01T20:11:19.531Z,73.86
2018-02-01T20:13:49.513Z,73.90
2018-02-01T20:16:19.660Z,74.46
2018-02-01T20:18:49.685Z,74.64
2018-02-01T20:21:19.724Z,74.61
2018-02-01T20:23:49.952Z,74.41
2018-02-01T20:26:19.903Z,74.84
2018-02-01T20:28:49.909Z,75.11
2018-02-01T20:31:19.893Z,75.37
2018-02-01T20:33:51.970Z,75.11
2018-02-01T20:36:21.890Z,75.18
2018-02-01T20:38:51.974Z,75.37
2018-02-01T20:41:22.099Z,75.39
2018-02-01T20:43:53.085Z,75.44
2018-02-01T20:46:25.157Z,75.66
2018-02-01T20:48:55.881Z,75.45
2018-02-01T20:51:26.015Z,75.32
2018-02-01T20:53:55.957Z,75.03
2018-02-01T20:56:26.044Z,75.29
2018-02-01T20:58:55.949Z,75.58
2018-02-01T21:01:26.315Z,75.63
2018-02-01T21:03:56.910Z,75.70
2018-02-01T21:06:27.297Z,75.87
2018-02-01T21:08:57.374Z,76.13
2018-02-01T21:11:27.300Z,76.44
2018-02-01T21:13:57.605Z,76.14
2018-02-01T21:16:27.623Z,76.43
2018-02-01T21:18:57.745Z,76.45
2018-02-01T21:21:27.564Z,76.10
2018-02-01T21:23:57.621Z,76.13
2018-02-01T21:26:28.365Z,76.19
2018-02-01T21:28:58.367Z,76.26
2018-02-01T21:31:28.425Z,76.04
2018-02-01T21:33:58.589Z,75.79
2018-02-01T21:36:28.996Z,75.44
2018-02-01T21:38:58.877Z,75.50
2018-02-01T21:41:28.993Z,75.67
2018-02-01T21:43:59.698Z,75.46
2018-02-01T21:46:29.741Z,75.33
2018-02-01T21:49:00.406Z,75.25
2018-02-01T21:51:30.577Z,75.47
2018-02-01T21:54:01.345Z,74.95
2018-02-01T21:56:31.240Z,74.40
2018-02-01T21:59:02.709Z,74.80
2018-02-01T22:01:35.311Z,74.95
2018-02-01T22:04:05.867Z,74.82
2018-02-01T22:06:36.824Z,74.75
2018-02-01T22:09:07.083Z,74.80
2018-02-01T22:11:37.048Z,74.81
2018-02-01T22:14:07.888Z,74.96
2018-02-01T22:16:37.943Z,75.17
2018-02-01T22:19:07.847Z,74.97
2018-02-01T22:21:37.673Z,75.05
2018-02-01T22:24:07.574Z,74.99
2018-02-01T22:26:37.673Z,75.06
2018-02-01T22:29:09.016Z,75.14
2018-02-01T22:31:39.728Z,75.04
2018-02-01T22:34:09.849Z,75.07
2018-02-01T22:36:39.708Z,75.47
2018-02-01T22:39:09.796Z,74.98
2018-02-01T22:41:40.027Z,75.08
2018-02-01T22:44:10.038Z,75.16
2018-02-01T22:46:40.025Z,75.19
2018-02-01T22:49:09.788Z,74.94
2018-02-01T22:51:40.385Z,74.70
2018-02-01T22:54:11.349Z,74.80
2018-02-01T22:56:42.042Z,74.82
2018-02-01T22:59:11.974Z,74.49
2018-02-01T23:01:42.406Z,74.55
2018-02-01T23:04:12.398Z,74.66
2018-02-01T23:06:42.216Z,74.94
2018-02-01T23:09:12.474Z,74.88
2018-02-01T23:11:43.154Z,74.62
2018-02-01T23:14:13.354Z,74.79
2018-02-01T23:16:43.290Z,74.26
2018-02-01T23:19:13.238Z,74.19
2018-02-01T23:21:43.337Z,73.85
2018-02-01T23:24:13.374Z,73.80
2018-02-01T23:26:43.305Z,73.87
2018-02-01T23:29:13.455Z,73.89
2018-02-01T23:31:44.049Z,73.74
2018-02-01T23:34:15.745Z,73.91
2018-02-01T23:36:45.689Z,74.23
2018-02-01T23:39:15.706Z,74.11
2018-02-01T23:41:45.777Z,74.19
2018-02-01T23:44:16.501Z,73.96
2018-02-01T23:46:46.492Z,74.01
2018-02-01T23:49:16.328Z,74.01
2018-02-01T23:51:46.359Z,74.41
2018-02-01T23:54:16.229Z,74.47
2018-02-01T23:56:46.118Z,74.72
2018-02-01T23:59:16.099Z,74.40
